Ahwahnee, CA

4:10 AM PDT on August 27, 2014 (GMT -0700)
Fresno Yosemite International | Change Station
CLOSE
Current Station
Airport
Location: Fresno,
Elevation: 328 ft
Nearby Weather Stations

Elev 328 ft 36.78 °N, 119.72 °W | Updated 17 minutes ago

Clear
Clear
72 °F
Feels Like 72 °F
N
0
Wind Variable Wind from North

Today
High -- | Low -- °F
--% Chance of Precip.
Yesterday
High -- | Low -- °F
Precip. -- in
6:25 AM 7:34 PM
Waxing Crescent, 3% visible
Pressure 29.97 in
Visibility 10.0 miles
Clouds Clear
Dew Point 54 °F
Humidity 53%
Rainfall 0.00 in
Snow Depth Not available.
UV 0 out of 12
Pollen 8.50 out of 12
Air Quality Not available.
Flu Activity Not available.
METAR KFAT 271053Z 00000KT 10SM CLR 22/12 A2998 RMK AO2 SLP147 T02220122

More Conditions Fewer Conditions

Pressure 29.97 in
Visibility 10.0 miles
Clouds Clear
Dew Point 54 °F
Humidity 53%
Rainfall 0.00 in
Snow Depth Not available.
UV 0 out of 12
Pollen 8.50 out of 12
Air Quality Not available.
Flu Activity Not available.
METAR KFAT 271053Z 00000KT 10SM CLR 22/12 A2998 RMK AO2 SLP147 T02220122

More Conditions Fewer Conditions

10-Day Weather Forecast

Almanac

Astronomy

Aug. 27, 2014 Rise Set
Actual Time 6:25 AM PDT 7:34 PM PDT
Civil Twilight 5:58 AM PDT 8:01 PM PDT
Nautical Twilight 5:26 AM PDT 8:33 PM PDT
Astronomical Twilight 4:52 AM PDT 9:07 PM PDT
Moon 8:22 AM PDT 8:33 PM PDT
Length of Visible Light 14h 03m
Length of Day
13h 09m
Tomorrow will be 2m 15s shorter.
Waxing Crescent, 3% of the Moon is Illuminated
Today
Waxing Crescent
Sep 2
First Quarter
Sep 8
Full
Sep 15
Last Quarter
Sep 24
New

Today's Extremes

State Highs State Lows

Community

WunderPhotos

Upload Photos

1,747,667 photos uploaded!

Nearby

Snow Depth

Station Depth Elevation
Leavitt Lake 1 in 9400 ft
Sonora Pass 0 in 8800 ft
Leavitt Meadows 1 in 7200 ft
Summit Meadow 1 in 9122 ft
Ebbetts Pass 0 in 8700 ft

Earthquake Activity

City Distance Mag. Time & Date
Soledad, California 97 miles 2.6 12:15 PM PDT
2014-08-26
Minimum magnitude displayed is 2.5.

Coastal Water Temperatures

Place Temperature
No Stations Reporting

Nearby Weather Stations